createdAt,value
2023-06-04T00:02:25.749Z,1.63
2023-06-04T00:04:53.259Z,2.37
2023-06-04T00:07:20.365Z,1.80
2023-06-04T00:09:48.224Z,2.10
2023-06-04T00:12:15.996Z,2.10
2023-06-04T00:14:46.140Z,2.00
2023-06-04T00:17:13.090Z,1.87
2023-06-04T00:19:41.642Z,1.67
2023-06-04T00:22:09.072Z,2.10
2023-06-04T00:24:38.501Z,1.87
2023-06-04T00:27:06.455Z,2.10
2023-06-04T00:29:33.413Z,1.73
2023-06-04T00:32:00.691Z,2.37
2023-06-04T00:34:27.906Z,2.10
2023-06-04T00:36:54.855Z,2.20
2023-06-04T00:39:21.845Z,1.83
2023-06-04T00:41:48.815Z,2.10
2023-06-04T00:44:15.746Z,2.10
2023-06-04T00:46:46.598Z,2.47
2023-06-04T00:49:14.882Z,1.93
2023-06-04T00:51:42.081Z,2.47
2023-06-04T00:54:12.914Z,2.53
2023-06-04T00:56:41.207Z,2.17
2023-06-04T00:59:10.748Z,2.47
2023-06-04T01:01:41.839Z,1.80
2023-06-04T01:04:16.476Z,2.37
2023-06-04T01:06:46.417Z,2.30
2023-06-04T01:09:14.985Z,2.50
2023-06-04T01:11:42.054Z,2.10
2023-06-04T01:14:10.635Z,1.80
2023-06-04T01:16:43.469Z,1.93
2023-06-04T01:19:31.285Z,2.30
2023-06-04T01:22:04.426Z,2.70
2023-06-04T01:24:37.679Z,2.30
2023-06-04T01:27:07.191Z,2.60
2023-06-04T01:29:37.352Z,2.20
2023-06-04T01:32:05.820Z,2.83
2023-06-04T01:34:44.970Z,2.60
2023-06-04T01:37:12.692Z,2.07
2023-06-04T01:39:39.692Z,2.40
2023-06-04T01:42:07.049Z,2.10
2023-06-04T01:44:34.038Z,2.23
2023-06-04T01:47:01.239Z,1.90
2023-06-04T01:49:28.926Z,2.80
2023-06-04T01:51:57.502Z,2.30
2023-06-04T01:54:24.440Z,2.13
2023-06-04T01:56:51.458Z,2.00
2023-06-04T01:59:18.402Z,2.07
2023-06-04T02:01:45.388Z,2.00
2023-06-04T02:04:12.348Z,2.77
2023-06-04T02:06:39.327Z,2.10
2023-06-04T02:09:06.429Z,2.40
2023-06-04T02:11:34.766Z,2.73
2023-06-04T02:14:01.675Z,2.13
2023-06-04T02:16:28.786Z,2.13
2023-06-04T02:18:55.803Z,1.90
2023-06-04T02:21:22.752Z,2.50
2023-06-04T02:23:50.979Z,2.13
2023-06-04T02:26:20.700Z,2.50
2023-06-04T02:28:48.966Z,2.33
2023-06-04T02:31:20.611Z,2.30
2023-06-04T02:33:47.644Z,1.97
2023-06-04T02:36:14.564Z,2.03
2023-06-04T02:38:41.441Z,2.33
2023-06-04T02:41:08.743Z,2.43
2023-06-04T02:43:36.103Z,2.40
2023-06-04T02:46:03.257Z,2.40
2023-06-04T02:48:30.321Z,2.70
2023-06-04T02:50:57.848Z,2.47
2023-06-04T02:53:24.860Z,2.30
2023-06-04T02:55:54.471Z,2.47
2023-06-04T02:58:22.801Z,2.73
2023-06-04T03:00:49.796Z,2.77
2023-06-04T03:03:16.908Z,3.10
2023-06-04T03:05:44.127Z,3.00
2023-06-04T03:08:11.238Z,2.97
2023-06-04T03:10:38.203Z,2.60
2023-06-04T03:13:05.579Z,2.07
2023-06-04T03:15:32.550Z,2.57
2023-06-04T03:18:00.753Z,2.73
2023-06-04T03:20:27.752Z,3.00
2023-06-04T03:22:54.696Z,2.90
2023-06-04T03:25:21.661Z,2.47
2023-06-04T03:27:48.721Z,2.63
2023-06-04T03:30:15.909Z,3.20
2023-06-04T03:32:45.231Z,3.23
2023-06-04T03:35:12.213Z,2.60
2023-06-04T03:37:39.141Z,3.80
2023-06-04T03:40:09.909Z,3.50
2023-06-04T03:42:36.829Z,3.40
2023-06-04T03:45:03.972Z,3.20
2023-06-04T03:47:31.394Z,2.90
2023-06-04T03:49:58.328Z,2.50
2023-06-04T03:52:25.334Z,2.97
2023-06-04T03:54:52.246Z,2.40
2023-06-04T03:57:19.496Z,2.53
2023-06-04T03:59:46.455Z,2.60
2023-06-04T04:02:13.465Z,2.57
2023-06-04T04:04:42.084Z,2.80
2023-06-04T04:07:14.466Z,2.37
2023-06-04T04:09:41.395Z,2.53
2023-06-04T04:12:08.578Z,2.30
2023-06-04T04:14:35.637Z,1.90
2023-06-04T04:17:04.897Z,2.60
2023-06-04T04:19:32.107Z,2.07
2023-06-04T04:21:59.127Z,2.53
2023-06-04T04:24:28.112Z,1.80
2023-06-04T04:26:55.840Z,2.07
2023-06-04T04:29:23.874Z,1.90
2023-06-04T04:31:54.697Z,2.43
2023-06-04T04:34:22.215Z,2.20
2023-06-04T04:36:53.473Z,2.10
2023-06-04T04:39:29.719Z,2.57
2023-06-04T04:41:56.910Z,2.27
2023-06-04T04:44:23.847Z,1.80
2023-06-04T04:46:51.011Z,1.93
2023-06-04T04:49:17.978Z,2.07
2023-06-04T04:51:44.868Z,2.13
2023-06-04T04:54:11.881Z,1.90
2023-06-04T04:56:38.808Z,2.00
2023-06-04T04:59:05.852Z,1.97
2023-06-04T05:01:32.814Z,1.50
2023-06-04T05:04:01.246Z,1.67
2023-06-04T05:06:29.902Z,1.73
2023-06-04T05:08:56.871Z,1.93
2023-06-04T05:11:23.834Z,1.67
2023-06-04T05:13:50.866Z,2.13
2023-06-04T05:16:21.833Z,1.77
2023-06-04T05:18:49.210Z,1.60
2023-06-04T05:21:16.210Z,1.80
2023-06-04T05:23:43.626Z,1.73
2023-06-04T05:26:10.636Z,2.00
2023-06-04T05:28:37.572Z,1.47
2023-06-04T05:31:05.784Z,1.50
2023-06-04T05:33:33.181Z,2.50
2023-06-04T05:36:00.265Z,1.50
2023-06-04T05:38:27.494Z,1.53
2023-06-04T05:40:57.801Z,1.60
2023-06-04T05:43:25.105Z,1.83
2023-06-04T05:45:52.855Z,1.63
2023-06-04T05:48:19.973Z,2.00
2023-06-04T05:50:48.606Z,1.40
2023-06-04T05:53:15.704Z,1.90
2023-06-04T05:55:42.851Z,1.80
2023-06-04T05:58:09.792Z,1.70
2023-06-04T06:00:36.760Z,1.20
2023-06-04T06:03:04.129Z,1.73
2023-06-04T06:05:31.327Z,1.93
2023-06-04T06:07:58.510Z,2.00
2023-06-04T06:10:25.669Z,1.50
2023-06-04T06:12:53.642Z,1.50
2023-06-04T06:15:20.593Z,1.73
2023-06-04T06:17:47.617Z,1.83
2023-06-04T06:20:19.211Z,1.60
2023-06-04T06:22:46.474Z,1.63
2023-06-04T06:25:17.136Z,1.50
2023-06-04T06:27:44.181Z,1.70
2023-06-04T06:30:11.880Z,1.40
2023-06-04T06:32:39.538Z,1.60
2023-06-04T06:35:07.015Z,1.50
2023-06-04T06:37:34.024Z,1.97
2023-06-04T06:40:01.190Z,1.73
2023-06-04T06:42:35.102Z,1.40
2023-06-04T06:45:02.254Z,2.17
2023-06-04T06:47:29.355Z,1.60
2023-06-04T06:49:56.530Z,1.50
2023-06-04T06:52:23.466Z,1.40
2023-06-04T06:54:50.459Z,1.10
2023-06-04T06:57:18.155Z,1.37
2023-06-04T06:59:46.308Z,1.20
2023-06-04T07:02:13.318Z,1.50
2023-06-04T07:04:40.339Z,1.20
2023-06-04T07:07:08.449Z,1.80
2023-06-04T07:09:35.882Z,1.20
2023-06-04T07:12:02.824Z,1.20
2023-06-04T07:14:29.852Z,1.23
2023-06-04T07:16:56.770Z,1.60
2023-06-04T07:19:23.756Z,1.40
2023-06-04T07:21:51.654Z,1.63
2023-06-04T07:24:18.660Z,1.57
2023-06-04T07:26:45.947Z,1.40
2023-06-04T07:29:13.302Z,1.10
2023-06-04T07:31:40.497Z,1.10
2023-06-04T07:34:07.529Z,1.13
2023-06-04T07:36:34.562Z,1.77
2023-06-04T07:39:01.741Z,1.23
2023-06-04T07:41:28.666Z,1.73
2023-06-04T07:43:55.635Z,1.50
2023-06-04T07:46:22.548Z,1.50
2023-06-04T07:48:49.535Z,1.70
2023-06-04T07:51:18.697Z,1.27
2023-06-04T07:53:46.141Z,1.57
2023-06-04T07:56:13.179Z,1.30
2023-06-04T07:58:40.285Z,2.30
2023-06-04T08:01:07.604Z,1.30
2023-06-04T08:03:35.581Z,1.40
2023-06-04T08:06:04.534Z,1.23
2023-06-04T08:08:32.363Z,2.27
2023-06-04T08:10:59.509Z,1.67
2023-06-04T08:13:27.168Z,1.40
2023-06-04T08:15:54.261Z,1.60
2023-06-04T08:18:21.264Z,1.47
2023-06-04T08:20:48.266Z,2.10
2023-06-04T08:23:15.321Z,1.73
2023-06-04T08:25:42.349Z,1.77
2023-06-04T08:28:09.428Z,1.67
2023-06-04T08:30:37.402Z,1.87
2023-06-04T08:33:04.917Z,1.80
2023-06-04T08:35:32.045Z,1.70
2023-06-04T08:38:00.147Z,2.07
2023-06-04T08:40:27.323Z,1.77
2023-06-04T08:42:59.372Z,2.03
2023-06-04T08:45:29.168Z,1.80
2023-06-04T08:47:58.262Z,1.57
2023-06-04T08:50:26.358Z,1.87
2023-06-04T08:52:57.177Z,1.90
2023-06-04T08:55:24.607Z,2.23
2023-06-04T08:57:52.822Z,2.37
2023-06-04T09:00:20.269Z,2.53
2023-06-04T09:02:48.508Z,2.60
2023-06-04T09:05:23.913Z,2.40
2023-06-04T09:07:55.357Z,2.37
2023-06-04T09:10:24.629Z,2.37
2023-06-04T09:12:53.087Z,2.87
2023-06-04T09:15:20.050Z,3.30
2023-06-04T09:17:47.026Z,2.47
2023-06-04T09:20:24.338Z,2.50
2023-06-04T09:22:52.012Z,3.00
2023-06-04T09:25:26.874Z,2.60
2023-06-04T09:27:56.623Z,2.70
2023-06-04T09:30:25.218Z,3.20
2023-06-04T09:32:54.786Z,2.70
2023-06-04T09:35:22.036Z,2.80
2023-06-04T09:37:58.598Z,3.50
2023-06-04T09:40:26.400Z,2.70
2023-06-04T09:42:56.737Z,3.23
2023-06-04T09:45:32.223Z,2.47
2023-06-04T09:48:00.448Z,2.40
2023-06-04T09:50:28.982Z,3.10
2023-06-04T09:52:56.487Z,2.30
2023-06-04T09:55:23.897Z,2.37
2023-06-04T09:57:52.139Z,2.10
2023-06-04T10:00:24.263Z,1.90
2023-06-04T10:03:02.704Z,1.80
2023-06-04T10:05:33.742Z,1.77
2023-06-04T10:08:04.792Z,1.93
2023-06-04T10:10:35.114Z,1.70
2023-06-04T10:13:08.098Z,1.83
2023-06-04T10:15:36.825Z,1.67
2023-06-04T10:18:05.121Z,1.50
2023-06-04T10:20:33.175Z,1.50
2023-06-04T10:23:01.334Z,2.20
2023-06-04T10:25:29.844Z,1.70
2023-06-04T10:27:57.447Z,1.80
2023-06-04T10:30:25.097Z,1.20
2023-06-04T10:32:52.523Z,1.33
2023-06-04T10:35:30.006Z,1.30
2023-06-04T10:38:10.048Z,1.40
2023-06-04T10:40:39.013Z,1.60
2023-06-04T10:43:17.243Z,2.03
2023-06-04T10:45:44.435Z,1.30
2023-06-04T10:48:13.622Z,1.50
2023-06-04T10:50:54.430Z,1.40
2023-06-04T10:53:21.590Z,1.57
2023-06-04T10:55:49.663Z,1.50
2023-06-04T10:58:19.182Z,1.53
2023-06-04T11:00:50.231Z,1.40
2023-06-04T11:03:18.044Z,1.50
2023-06-04T11:05:47.121Z,1.93
2023-06-04T11:08:15.581Z,1.33
2023-06-04T11:10:45.357Z,1.37
2023-06-04T11:13:12.372Z,1.23
2023-06-04T11:15:45.059Z,1.43
2023-06-04T11:18:30.391Z,1.27
2023-06-04T11:21:03.622Z,1.20
2023-06-04T11:23:30.900Z,1.10
2023-06-04T11:25:59.505Z,1.10
2023-06-04T11:28:26.581Z,1.70
2023-06-04T11:31:04.802Z,1.33
2023-06-04T11:33:42.785Z,1.30
2023-06-04T11:36:10.090Z,1.50
2023-06-04T11:38:37.019Z,1.53
2023-06-04T11:41:06.300Z,1.63
2023-06-04T11:43:34.065Z,1.33
2023-06-04T11:46:06.992Z,1.10
2023-06-04T11:48:38.431Z,1.27
2023-06-04T11:51:11.934Z,1.60
2023-06-04T11:53:39.479Z,1.53
2023-06-04T11:56:07.257Z,1.40
2023-06-04T11:58:34.662Z,1.33
2023-06-04T12:01:01.906Z,1.63
2023-06-04T12:03:42.690Z,1.87
2023-06-04T12:06:22.217Z,2.07
2023-06-04T12:08:55.837Z,1.47
2023-06-04T12:11:49.190Z,2.00
2023-06-04T12:14:20.130Z,1.97
2023-06-04T12:17:09.685Z,2.20
2023-06-04T12:19:49.586Z,2.03
2023-06-04T12:22:16.502Z,2.03
2023-06-04T12:24:54.918Z,2.63
2023-06-04T12:27:24.443Z,2.17
2023-06-04T12:30:02.781Z,2.20
2023-06-04T12:32:32.597Z,2.27
2023-06-04T12:34:59.802Z,2.10
2023-06-04T12:37:27.030Z,2.50
2023-06-04T12:39:54.665Z,2.77
2023-06-04T12:42:21.864Z,2.67
2023-06-04T12:44:49.118Z,2.73
2023-06-04T12:47:18.088Z,2.37
2023-06-04T12:49:46.614Z,2.63
2023-06-04T12:52:15.379Z,2.13
2023-06-04T12:54:43.834Z,2.20
2023-06-04T12:57:10.938Z,2.70
2023-06-04T12:59:37.967Z,2.60
2023-06-04T13:02:05.041Z,2.67
2023-06-04T13:04:32.066Z,2.93
2023-06-04T13:07:00.581Z,2.57
2023-06-04T13:09:29.630Z,2.70
2023-06-04T13:11:56.994Z,2.17
2023-06-04T13:14:24.004Z,2.83
2023-06-04T13:16:52.836Z,2.80
2023-06-04T13:19:22.811Z,3.03
2023-06-04T13:21:50.487Z,3.03
2023-06-04T13:24:17.606Z,3.13
2023-06-04T13:26:44.619Z,2.70
2023-06-04T13:29:12.075Z,3.30
2023-06-04T13:31:41.224Z,2.93
2023-06-04T13:34:25.538Z,2.53
2023-06-04T13:36:54.623Z,2.90
2023-06-04T13:39:21.988Z,2.13
2023-06-04T13:41:49.018Z,2.60
2023-06-04T13:44:16.142Z,2.57
2023-06-04T13:46:43.680Z,2.70
2023-06-04T13:49:10.821Z,2.37
2023-06-04T13:51:37.731Z,2.43
2023-06-04T13:54:06.055Z,2.57
2023-06-04T13:56:36.263Z,1.83
2023-06-04T13:59:03.433Z,2.30
2023-06-04T14:01:31.400Z,2.10
2023-06-04T14:03:59.984Z,2.00
2023-06-04T14:06:27.568Z,2.23
2023-06-04T14:08:54.555Z,2.30
2023-06-04T14:11:21.758Z,1.67
2023-06-04T14:13:49.078Z,1.63
2023-06-04T14:16:16.158Z,1.50
2023-06-04T14:18:43.094Z,1.87
2023-06-04T14:21:10.165Z,2.23
2023-06-04T14:23:37.280Z,1.93
2023-06-04T14:26:04.307Z,2.03
2023-06-04T14:28:31.316Z,2.13
2023-06-04T14:30:59.682Z,2.30
2023-06-04T14:33:26.643Z,2.10
2023-06-04T14:35:53.677Z,1.90
2023-06-04T14:38:20.741Z,2.20
2023-06-04T14:40:47.684Z,1.87
2023-06-04T14:43:14.700Z,2.00
2023-06-04T14:45:42.025Z,1.90
2023-06-04T14:48:15.700Z,1.90
2023-06-04T14:50:44.592Z,2.60
2023-06-04T14:53:13.199Z,1.77
2023-06-04T14:55:40.754Z,2.20
2023-06-04T14:58:08.062Z,2.10
2023-06-04T15:00:35.134Z,1.77
2023-06-04T15:03:03.937Z,2.23
2023-06-04T15:05:35.896Z,2.40
2023-06-04T15:08:04.346Z,2.10
2023-06-04T15:10:31.415Z,1.63
2023-06-04T15:12:58.567Z,2.10
2023-06-04T15:15:26.274Z,2.00
2023-06-04T15:17:53.604Z,1.90
2023-06-04T15:20:20.811Z,1.90
2023-06-04T15:22:48.642Z,1.60
2023-06-04T15:25:15.690Z,1.70
2023-06-04T15:27:42.680Z,2.40
2023-06-04T15:30:10.592Z,1.57
2023-06-04T15:32:38.339Z,1.67
2023-06-04T15:35:05.835Z,1.80
2023-06-04T15:37:32.883Z,1.63
2023-06-04T15:40:01.050Z,2.20
2023-06-04T15:42:29.336Z,2.17
2023-06-04T15:44:56.259Z,1.50
2023-06-04T15:47:23.346Z,1.90
2023-06-04T15:49:50.379Z,1.93
2023-06-04T15:52:17.540Z,1.40
2023-06-04T15:54:47.009Z,2.10
2023-06-04T15:57:14.902Z,2.07
2023-06-04T15:59:42.600Z,2.00
2023-06-04T16:02:09.798Z,1.73
2023-06-04T16:04:36.976Z,1.40
2023-06-04T16:07:06.104Z,1.63
2023-06-04T16:09:34.400Z,1.57
2023-06-04T16:12:01.406Z,1.80
2023-06-04T16:14:28.445Z,1.60
2023-06-04T16:16:55.580Z,1.23
2023-06-04T16:19:22.747Z,1.73
2023-06-04T16:21:49.715Z,1.60
2023-06-04T16:24:17.624Z,1.47
2023-06-04T16:26:44.639Z,1.60
2023-06-04T16:29:11.739Z,1.70
2023-06-04T16:31:39.091Z,1.80
2023-06-04T16:34:06.158Z,1.70
2023-06-04T16:36:34.247Z,1.20
2023-06-04T16:39:01.544Z,1.20
2023-06-04T16:41:28.759Z,1.43
2023-06-04T16:43:55.969Z,1.50
2023-06-04T16:46:24.291Z,1.57
2023-06-04T16:48:51.242Z,1.67
2023-06-04T16:51:18.108Z,1.40
2023-06-04T16:53:45.085Z,1.13
2023-06-04T16:56:12.110Z,1.10
2023-06-04T16:58:40.668Z,1.60
2023-06-04T17:01:11.262Z,2.10
2023-06-04T17:03:38.750Z,1.30
2023-06-04T17:06:06.647Z,1.30
2023-06-04T17:08:33.890Z,1.67
2023-06-04T17:11:00.969Z,1.17
2023-06-04T17:13:28.081Z,1.23
2023-06-04T17:15:55.189Z,1.50
2023-06-04T17:18:22.223Z,1.33
2023-06-04T17:20:49.211Z,1.20
2023-06-04T17:23:26.838Z,1.50
2023-06-04T17:25:54.433Z,1.13
2023-06-04T17:28:21.527Z,1.20
2023-06-04T17:30:49.234Z,1.20
2023-06-04T17:33:16.466Z,1.47
2023-06-04T17:35:43.631Z,1.20
2023-06-04T17:38:10.758Z,1.10
2023-06-04T17:40:37.943Z,1.00
2023-06-04T17:43:05.086Z,1.50
2023-06-04T17:45:33.374Z,1.40
2023-06-04T17:48:00.592Z,1.47
2023-06-04T17:50:27.836Z,1.50
2023-06-04T17:52:54.940Z,0.93
2023-06-04T17:55:22.072Z,1.20
2023-06-04T17:57:49.324Z,1.27
2023-06-04T18:00:17.103Z,1.70
2023-06-04T18:02:44.534Z,2.53
2023-06-04T18:05:11.783Z,2.10
2023-06-04T18:07:38.768Z,1.40
2023-06-04T18:10:08.037Z,1.30
2023-06-04T18:12:36.881Z,1.10
2023-06-04T18:15:05.394Z,1.50
2023-06-04T18:17:32.829Z,1.30
2023-06-04T18:19:59.890Z,1.10
2023-06-04T18:22:26.947Z,1.23
2023-06-04T18:24:54.566Z,1.30
2023-06-04T18:27:22.517Z,1.20
2023-06-04T18:29:50.370Z,1.23
2023-06-04T18:32:18.559Z,1.33
2023-06-04T18:34:46.356Z,1.20
2023-06-04T18:37:13.361Z,1.40
2023-06-04T18:39:41.191Z,1.50
2023-06-04T18:42:18.221Z,1.00
2023-06-04T18:44:58.074Z,1.50
2023-06-04T18:47:25.348Z,1.50
2023-06-04T18:49:52.436Z,1.40
2023-06-04T18:52:19.389Z,1.57
2023-06-04T18:54:46.588Z,1.57
2023-06-04T18:57:14.762Z,1.40
2023-06-04T18:59:41.974Z,1.20
2023-06-04T19:02:08.979Z,1.40
2023-06-04T19:04:35.980Z,1.50
2023-06-04T19:07:03.979Z,1.17
2023-06-04T19:09:31.396Z,1.20
2023-06-04T19:11:58.494Z,1.50
2023-06-04T19:14:26.235Z,1.03
2023-06-04T19:16:53.296Z,1.60
2023-06-04T19:19:21.290Z,1.60
2023-06-04T19:21:53.482Z,1.23
2023-06-04T19:24:24.356Z,1.40
2023-06-04T19:26:52.151Z,1.13
2023-06-04T19:29:19.837Z,1.60
2023-06-04T19:31:47.934Z,1.40
2023-06-04T19:34:15.035Z,1.47
2023-06-04T19:36:42.045Z,1.50
2023-06-04T19:39:09.014Z,1.20
2023-06-04T19:41:36.182Z,1.37
2023-06-04T19:44:03.691Z,1.80
2023-06-04T19:46:31.821Z,1.77
2023-06-04T19:49:00.033Z,1.70
2023-06-04T19:51:28.432Z,1.60
2023-06-04T19:53:57.070Z,2.17
2023-06-04T19:56:24.107Z,1.67
2023-06-04T19:58:51.098Z,2.03
2023-06-04T20:01:18.734Z,2.37
2023-06-04T20:03:45.910Z,1.90
2023-06-04T20:06:12.902Z,1.83
2023-06-04T20:08:39.896Z,2.40
2023-06-04T20:11:06.953Z,2.63
2023-06-04T20:13:33.962Z,2.73
2023-06-04T20:16:01.393Z,3.10
2023-06-04T20:18:30.122Z,3.40
2023-06-04T20:20:57.090Z,2.90
2023-06-04T20:23:24.042Z,3.33
2023-06-04T20:25:52.110Z,3.23
2023-06-04T20:28:20.234Z,3.03
2023-06-04T20:30:47.454Z,3.50
2023-06-04T20:33:14.439Z,3.30
2023-06-04T20:35:41.686Z,4.00
2023-06-04T20:38:08.647Z,4.97
2023-06-04T20:40:35.649Z,3.83
2023-06-04T20:43:02.614Z,3.57
2023-06-04T20:48:10.492Z,2.90
2023-06-04T20:50:37.461Z,2.80
2023-06-04T20:53:06.966Z,2.10
2023-06-04T20:55:36.230Z,1.90
2023-06-04T20:58:03.413Z,1.90
2023-06-04T21:00:30.516Z,1.77
2023-06-04T21:02:57.609Z,1.97
2023-06-04T21:05:24.593Z,2.03
2023-06-04T21:07:51.983Z,1.90
2023-06-04T21:10:19.046Z,2.30
2023-06-04T21:12:46.016Z,2.07
2023-06-04T21:15:12.999Z,2.20
2023-06-04T21:17:40.035Z,2.17
2023-06-04T21:20:07.823Z,2.10
2023-06-04T21:22:34.850Z,2.70
2023-06-04T21:25:01.969Z,2.40
2023-06-04T21:27:28.981Z,2.17
2023-06-04T21:29:55.939Z,2.37
2023-06-04T21:32:23.260Z,2.27
2023-06-04T21:34:50.317Z,2.63
2023-06-04T21:37:17.256Z,2.27
2023-06-04T21:39:44.308Z,2.70
2023-06-04T21:42:11.568Z,3.20
2023-06-04T21:44:38.537Z,2.97
2023-06-04T21:47:06.193Z,2.70
2023-06-04T21:49:33.277Z,2.23
2023-06-04T21:52:05.217Z,3.30
2023-06-04T21:54:34.731Z,2.83
2023-06-04T21:57:01.697Z,2.20
2023-06-04T21:59:29.849Z,2.10
2023-06-04T22:01:58.155Z,2.10
2023-06-04T22:04:25.444Z,2.33
2023-06-04T22:06:52.469Z,2.37
2023-06-04T22:09:19.431Z,2.77
2023-06-04T22:11:46.927Z,2.00
2023-06-04T22:14:14.160Z,2.33
2023-06-04T22:16:41.169Z,2.30
2023-06-04T22:19:08.146Z,2.27
2023-06-04T22:21:35.085Z,2.33
2023-06-04T22:24:03.616Z,2.80
2023-06-04T22:29:03.365Z,2.80
2023-06-04T22:31:30.864Z,2.67
2023-06-04T22:33:58.189Z,2.63
2023-06-04T22:36:25.263Z,2.20
2023-06-04T22:38:53.669Z,3.00
2023-06-04T22:41:20.711Z,3.17
2023-06-04T22:43:47.692Z,2.23
2023-06-04T22:46:14.709Z,2.10
2023-06-04T22:48:42.102Z,2.23
2023-06-04T22:51:09.516Z,2.50
2023-06-04T22:53:36.857Z,2.90
2023-06-04T22:56:07.760Z,2.77
2023-06-04T22:58:34.954Z,2.60
2023-06-04T23:01:02.437Z,2.87
2023-06-04T23:03:29.549Z,2.70
2023-06-04T23:05:56.655Z,2.53
2023-06-04T23:08:23.750Z,2.33
2023-06-04T23:10:51.535Z,2.80
2023-06-04T23:13:18.711Z,2.30
2023-06-04T23:15:45.738Z,3.17
2023-06-04T23:18:12.893Z,2.57
2023-06-04T23:20:40.028Z,2.80
2023-06-04T23:23:06.928Z,3.33
2023-06-04T23:25:34.108Z,2.90
2023-06-04T23:28:01.057Z,2.90
2023-06-04T23:30:28.225Z,2.73
2023-06-04T23:32:55.320Z,3.77
2023-06-04T23:35:22.333Z,3.57
2023-06-04T23:37:49.455Z,3.20
2023-06-04T23:40:16.413Z,3.10
2023-06-04T23:42:43.442Z,2.50
2023-06-04T23:45:13.043Z,3.40
2023-06-04T23:47:40.066Z,3.13
2023-06-04T23:50:07.730Z,3.40
2023-06-04T23:52:34.902Z,2.70
2023-06-04T23:55:01.872Z,3.30
2023-06-04T23:57:28.843Z,3.13
2023-06-04T23:59:55.835Z,2.70
